Time;durP1;ratioP1;P1;durP2;ratioP2;P2;SDS_P1;SDS_P2;PMS_P1;PMS_P2;Temp;Humidity;BMP_temperature;BMP_pressure;BME280_temperature;BME280_humidity;BME280_pressure;Samples;Min_cycle;Max_cycle;Signal;HPM_P1;HPM_P2
2023/09/01 00:02:09;;;;;;;3.00;2.23;;;20.80;99.90;;;;;;5033626;28;20195;-52
2023/09/01 00:04:35;;;;;;;2.08;1.90;;;20.80;99.90;;;;;;5032946;28;20483;-59
2023/09/01 00:07:02;;;;;;;2.67;1.70;;;20.80;99.90;;;;;;5027661;28;20199;-53
2023/09/01 00:09:29;;;;;;;2.10;1.90;;;20.80;99.90;;;;;;5024804;28;20466;-56
2023/09/01 00:11:56;;;;;;;2.50;1.80;;;20.80;99.90;;;;;;5022848;28;20462;-50
2023/09/01 00:14:22;;;;;;;2.05;1.63;;;20.80;99.90;;;;;;5026387;28;20195;-51
2023/09/01 00:16:50;;;;;;;1.88;1.67;;;20.70;99.90;;;;;;5022660;28;20187;-54
2023/09/01 00:19:17;;;;;;;2.17;1.70;;;20.80;99.90;;;;;;5025275;28;20203;-53
2023/09/01 00:21:44;;;;;;;2.72;1.70;;;20.70;99.90;;;;;;5022722;28;20207;-57
2023/09/01 00:24:11;;;;;;;2.38;1.60;;;20.70;99.90;;;;;;5027916;28;20199;-51
2023/09/01 00:26:37;;;;;;;2.67;1.77;;;20.70;99.90;;;;;;5029935;28;20523;-53
2023/09/01 00:29:04;;;;;;;2.38;1.90;;;20.80;99.90;;;;;;5034731;28;20458;-54
2023/09/01 00:31:32;;;;;;;3.13;1.52;;;20.80;99.90;;;;;;5032651;28;20191;-56
2023/09/01 00:34:00;;;;;;;2.40;2.20;;;20.80;99.90;;;;;;5036556;28;20187;-53
2023/09/01 00:36:26;;;;;;;2.00;1.80;;;20.80;99.90;;;;;;5036201;28;20477;-58
2023/09/01 00:38:54;;;;;;;6.07;2.20;;;20.70;99.90;;;;;;5035915;28;20274;-51
2023/09/01 00:41:21;;;;;;;2.15;1.60;;;20.70;99.90;;;;;;5035019;28;20782;-53
2023/09/01 00:43:48;;;;;;;1.50;1.40;;;20.70;99.90;;;;;;5029034;28;20202;-54
2023/09/01 00:46:14;;;;;;;2.63;2.03;;;20.70;99.90;;;;;;5033216;28;20211;-51
2023/09/01 00:48:41;;;;;;;2.88;1.95;;;20.70;99.90;;;;;;5031345;28;21426;-53
2023/09/01 00:51:09;;;;;;;2.17;1.77;;;20.70;99.90;;;;;;5033608;28;20201;-54
2023/09/01 00:53:37;;;;;;;3.90;1.80;;;20.70;99.90;;;;;;5032859;28;20206;-53
2023/09/01 00:56:04;;;;;;;1.83;1.55;;;20.70;99.90;;;;;;5032164;28;20474;-52
2023/09/01 00:58:31;;;;;;;3.28;2.00;;;20.70;99.90;;;;;;5031071;28;20556;-51
2023/09/01 01:00:58;;;;;;;1.98;1.52;;;20.70;99.90;;;;;;5026850;28;20222;-52
2023/09/01 01:03:26;;;;;;;2.60;1.75;;;20.70;99.90;;;;;;5066607;22;20225;-63
2023/09/01 01:06:09;;;;;;;2.70;1.70;;;20.70;99.90;;;;;;5054346;28;20229;-62
2023/09/01 01:08:52;;;;;;;2.40;1.80;;;20.70;99.90;;;;;;5055408;28;20198;-63
2023/09/01 01:11:26;;;;;;;1.60;1.50;;;20.70;99.90;;;;;;5055135;28;20534;-63
2023/09/01 01:13:58;;;;;;;2.30;1.80;;;20.70;99.90;;;;;;5054528;28;20197;-61
2023/09/01 01:16:27;;;;;;;3.00;1.80;;;20.80;99.90;;;;;;5054317;28;20279;-61
2023/09/01 01:18:56;;;;;;;1.95;1.70;;;20.70;99.90;;;;;;5052527;28;20195;-62
2023/09/01 01:21:27;;;;;;;3.03;1.80;;;20.70;99.90;;;;;;5056058;28;20199;-62
2023/09/01 01:23:56;;;;;;;1.67;1.50;;;20.70;99.90;;;;;;5057738;28;20206;-62
2023/09/01 01:26:23;;;;;;;1.87;1.77;;;20.70;99.90;;;;;;5056693;28;20229;-62
2023/09/01 01:28:50;;;;;;;1.85;1.45;;;20.70;99.90;;;;;;5061323;28;20530;-62
2023/09/01 01:31:18;;;;;;;2.63;1.90;;;20.70;99.90;;;;;;5059653;28;20193;-62
2023/09/01 01:33:51;;;;;;;2.17;1.58;;;20.70;99.90;;;;;;5061050;28;20456;-62
2023/09/01 01:36:19;;;;;;;2.45;1.70;;;20.70;99.90;;;;;;5059437;28;20553;-62
2023/09/01 01:38:50;;;;;;;2.40;1.80;;;20.70;99.90;;;;;;5059738;28;20608;-62
2023/09/01 01:41:24;;;;;;;1.55;1.45;;;20.70;99.90;;;;;;5059339;28;20206;-62
2023/09/01 01:43:52;;;;;;;1.80;1.50;;;20.70;99.90;;;;;;5059912;28;20195;-62
2023/09/01 01:46:20;;;;;;;3.25;2.30;;;20.70;99.90;;;;;;5058979;28;20234;-62
2023/09/01 01:48:47;;;;;;;2.07;1.73;;;20.70;99.90;;;;;;5062252;28;20211;-62
2023/09/01 01:51:14;;;;;;;3.15;1.80;;;20.70;99.90;;;;;;5057756;28;20461;-62
2023/09/01 01:53:42;;;;;;;3.05;1.90;;;20.70;99.90;;;;;;5059562;28;20616;-62
2023/09/01 01:56:09;;;;;;;2.10;1.60;;;20.70;99.90;;;;;;5060126;28;20370;-62
2023/09/01 01:58:39;;;;;;;1.73;1.63;;;20.70;99.90;;;;;;5060938;28;20569;-62
2023/09/01 02:01:07;;;;;;;2.37;1.77;;;20.70;99.90;;;;;;5059099;28;20285;-62
2023/09/01 02:03:33;;;;;;;2.40;2.03;;;20.70;99.90;;;;;;5060188;28;21033;-61
2023/09/01 02:06:00;;;;;;;4.63;1.88;;;20.70;99.90;;;;;;5059204;28;20229;-61
2023/09/01 02:08:27;;;;;;;1.73;1.57;;;20.70;99.90;;;;;;5059391;28;20198;-62
2023/09/01 02:10:55;;;;;;;2.20;1.60;;;20.70;99.90;;;;;;5058208;28;20462;-62
2023/09/01 02:13:21;;;;;;;2.50;1.80;;;20.70;99.90;;;;;;5060430;28;20280;-61
2023/09/01 02:15:53;;;;;;;1.88;1.45;;;20.70;99.90;;;;;;5059416;28;20229;-62
2023/09/01 02:18:20;;;;;;;2.47;1.55;;;20.70;99.90;;;;;;5062319;28;20684;-63
2023/09/01 02:20:47;;;;;;;1.63;1.52;;;20.70;99.90;;;;;;5059737;28;20208;-62
2023/09/01 02:23:15;;;;;;;1.90;1.60;;;20.70;99.90;;;;;;5057112;28;20200;-63
2023/09/01 02:25:42;;;;;;;1.95;1.85;;;20.70;99.90;;;;;;5058945;28;21212;-63
2023/09/01 02:28:08;;;;;;;2.27;2.07;;;20.70;99.90;;;;;;5060892;28;20203;-63
2023/09/01 02:30:35;;;;;;;2.13;1.42;;;20.70;99.90;;;;;;5060705;28;20487;-62
2023/09/01 02:33:04;;;;;;;1.73;1.50;;;20.70;99.90;;;;;;5060875;28;20192;-62
2023/09/01 02:35:30;;;;;;;2.20;1.47;;;20.70;99.90;;;;;;5058717;28;20942;-62
2023/09/01 02:37:57;;;;;;;1.95;1.75;;;20.70;99.90;;;;;;5059199;28;20453;-62
2023/09/01 02:40:24;;;;;;;1.75;1.50;;;20.70;99.90;;;;;;5059159;28;20707;-63
2023/09/01 02:42:51;;;;;;;1.60;1.50;;;20.70;99.90;;;;;;5059986;28;20191;-61
2023/09/01 02:45:19;;;;;;;1.70;1.60;;;20.70;99.90;;;;;;5057931;28;20214;-62
2023/09/01 02:47:45;;;;;;;4.32;1.90;;;20.70;99.90;;;;;;5061327;28;20194;-62
2023/09/01 02:50:13;;;;;;;1.65;1.40;;;20.70;99.90;;;;;;5059067;28;20191;-62
2023/09/01 02:52:40;;;;;;;1.63;1.52;;;20.70;99.90;;;;;;5060825;28;20196;-62
2023/09/01 02:55:08;;;;;;;2.38;1.95;;;20.70;99.90;;;;;;5058122;28;20400;-62
2023/09/01 02:57:35;;;;;;;1.70;1.60;;;20.70;99.90;;;;;;5055795;28;20206;-62
2023/09/01 03:00:14;;;;;;;1.65;1.55;;;20.70;99.90;;;;;;5061269;28;21125;-62
2023/09/01 03:02:41;;;;;;;1.60;1.50;;;20.70;99.90;;;;;;5057828;28;20297;-62
2023/09/01 03:05:10;;;;;;;2.15;1.50;;;20.70;99.90;;;;;;5059451;28;21098;-62
2023/09/01 03:07:38;;;;;;;1.70;1.60;;;20.70;99.90;;;;;;5060179;28;20186;-61
2023/09/01 03:10:07;;;;;;;2.65;2.25;;;20.70;99.90;;;;;;5061469;28;20208;-62
2023/09/01 03:12:34;;;;;;;2.17;1.83;;;20.70;99.90;;;;;;5058383;28;20196;-62
2023/09/01 03:15:01;;;;;;;1.50;1.33;;;20.70;99.90;;;;;;5055947;28;20205;-62
2023/09/01 03:17:28;;;;;;;2.43;1.70;;;20.70;99.90;;;;;;5057535;28;20842;-61
2023/09/01 03:19:55;;;;;;;1.95;1.75;;;20.70;99.90;;;;;;5058816;28;20456;-62
2023/09/01 03:22:22;;;;;;;2.17;1.98;;;20.70;99.90;;;;;;5059029;28;20200;-62
2023/09/01 03:24:51;;;;;;;2.22;1.88;;;20.70;99.90;;;;;;5058725;28;20506;-61
2023/09/01 03:27:18;;;;;;;1.55;1.45;;;20.70;99.90;;;;;;5057611;28;20647;-62
2023/09/01 03:29:45;;;;;;;1.75;1.50;;;20.70;99.90;;;;;;5056105;28;20203;-62
2023/09/01 03:32:12;;;;;;;1.60;1.40;;;20.70;99.90;;;;;;5058626;28;20206;-62
2023/09/01 03:34:39;;;;;;;2.03;1.42;;;20.70;99.90;;;;;;5060782;28;20650;-62
2023/09/01 03:37:08;;;;;;;2.97;1.60;;;20.70;99.90;;;;;;5057464;28;20195;-62
2023/09/01 03:39:35;;;;;;;2.00;1.90;;;20.70;99.90;;;;;;5057111;28;20203;-62
2023/09/01 03:42:03;;;;;;;1.60;1.50;;;20.70;99.90;;;;;;5059508;28;20662;-62
2023/09/01 03:44:29;;;;;;;2.00;1.90;;;20.70;99.90;;;;;;5054953;28;20721;-62
2023/09/01 03:46:58;;;;;;;2.83;1.88;;;20.70;99.90;;;;;;5055781;28;20543;-62
2023/09/01 03:49:26;;;;;;;1.83;1.45;;;20.70;99.90;;;;;;5059023;28;20266;-62
2023/09/01 03:51:53;;;;;;;1.67;1.45;;;20.70;99.90;;;;;;5058751;28;20196;-62
2023/09/01 03:54:19;;;;;;;1.92;1.83;;;20.70;99.90;;;;;;5059728;28;20205;-62
2023/09/01 03:56:46;;;;;;;1.67;1.58;;;20.70;99.90;;;;;;5054778;28;20209;-62
2023/09/01 03:59:14;;;;;;;2.17;1.52;;;20.70;99.90;;;;;;5058347;28;20202;-61
2023/09/01 04:01:42;;;;;;;2.13;1.50;;;20.70;99.90;;;;;;5058637;28;20206;-62
2023/09/01 04:04:09;;;;;;;2.10;1.90;;;20.70;99.90;;;;;;5059302;28;20203;-62
2023/09/01 04:06:36;;;;;;;1.65;1.55;;;20.70;99.90;;;;;;5045181;28;20217;-62
2023/09/01 04:09:03;;;;;;;1.70;1.60;;;20.70;99.90;;;;;;5059802;28;20191;-62
2023/09/01 04:11:30;;;;;;;2.97;2.25;;;20.70;99.90;;;;;;5052067;28;20207;-62
2023/09/01 04:13:56;;;;;;;2.10;1.90;;;20.70;99.90;;;;;;5061292;28;20193;-62
2023/09/01 04:16:25;;;;;;;2.00;1.40;;;20.70;99.90;;;;;;5055246;28;20209;-62
2023/09/01 04:18:51;;;;;;;1.40;1.30;;;20.70;99.90;;;;;;5061210;28;20233;-62
2023/09/01 04:21:18;;;;;;;1.95;1.85;;;20.70;99.90;;;;;;5054021;28;20201;-62
2023/09/01 04:23:45;;;;;;;1.63;1.52;;;20.70;99.90;;;;;;5057595;28;20182;-62
2023/09/01 04:26:13;;;;;;;1.50;1.38;;;20.70;99.90;;;;;;5056073;28;20223;-62
2023/09/01 04:28:39;;;;;;;2.55;1.88;;;20.70;99.90;;;;;;5058069;28;20214;-62
2023/09/01 04:31:15;;;;;;;1.70;1.30;;;20.70;99.90;;;;;;5058291;28;20190;-62
2023/09/01 04:33:43;;;;;;;1.63;1.52;;;20.60;99.90;;;;;;5057396;28;20203;-62
2023/09/01 04:36:10;;;;;;;1.67;1.58;;;20.70;99.90;;;;;;5057398;28;20226;-62
2023/09/01 04:38:37;;;;;;;2.13;1.80;;;20.60;99.90;;;;;;5060074;28;20572;-62
2023/09/01 04:41:04;;;;;;;2.17;1.70;;;20.70;99.90;;;;;;5058849;28;20186;-62
2023/09/01 04:43:30;;;;;;;1.60;1.42;;;20.70;99.90;;;;;;5053738;28;20206;-62
2023/09/01 04:45:58;;;;;;;2.08;1.88;;;20.60;99.90;;;;;;5057245;28;20221;-62
2023/09/01 04:48:25;;;;;;;2.75;1.63;;;20.60;99.90;;;;;;5058593;28;20554;-62
2023/09/01 04:50:54;;;;;;;1.80;1.52;;;20.60;99.90;;;;;;5056832;28;20664;-62
2023/09/01 04:53:21;;;;;;;2.00;1.80;;;20.70;99.90;;;;;;5059404;28;20202;-62
2023/09/01 04:55:48;;;;;;;1.60;1.50;;;20.60;99.90;;;;;;5058553;28;20650;-62
2023/09/01 04:58:15;;;;;;;1.92;1.40;;;20.60;99.90;;;;;;5059290;28;20221;-62
2023/09/01 05:00:42;;;;;;;1.80;1.70;;;20.70;99.90;;;;;;5056758;28;20206;-63
2023/09/01 05:03:09;;;;;;;1.48;1.38;;;20.60;99.90;;;;;;5063808;28;20206;-62
2023/09/01 05:05:35;;;;;;;2.42;1.60;;;20.60;99.90;;;;;;5061709;28;20665;-62
2023/09/01 05:08:04;;;;;;;1.25;1.13;;;20.60;99.90;;;;;;5059933;28;20206;-62
2023/09/01 05:10:31;;;;;;;1.70;1.60;;;20.60;99.90;;;;;;5061012;28;20202;-62
2023/09/01 05:12:57;;;;;;;1.40;1.30;;;20.60;99.90;;;;;;5062507;28;20701;-62
2023/09/01 05:15:24;;;;;;;1.70;1.60;;;20.60;99.90;;;;;;5055166;28;20218;-62
2023/09/01 05:17:51;;;;;;;1.60;1.50;;;20.60;99.90;;;;;;5065236;28;20197;-62
2023/09/01 05:20:17;;;;;;;1.80;1.70;;;20.60;99.90;;;;;;5061615;28;20547;-61
2023/09/01 05:22:44;;;;;;;2.60;1.90;;;20.60;99.90;;;;;;5061268;28;20191;-62
2023/09/01 05:25:12;;;;;;;2.25;1.83;;;20.60;99.90;;;;;;5058562;28;20202;-62
2023/09/01 05:27:39;;;;;;;1.73;1.63;;;20.60;99.90;;;;;;5061256;28;20677;-62
2023/09/01 05:30:07;;;;;;;1.50;1.40;;;20.60;99.90;;;;;;5062185;28;20218;-61
2023/09/01 05:32:35;;;;;;;1.50;1.40;;;20.60;99.90;;;;;;5061776;28;20603;-62
2023/09/01 05:35:01;;;;;;;1.95;1.38;;;20.60;99.90;;;;;;5062556;28;21026;-62
2023/09/01 05:37:28;;;;;;;1.70;1.30;;;20.60;99.90;;;;;;5062588;28;20201;-62
2023/09/01 05:39:56;;;;;;;1.35;1.25;;;20.60;99.90;;;;;;5061714;28;20194;-62
2023/09/01 05:42:24;;;;;;;2.30;1.70;;;20.60;99.90;;;;;;5060266;28;20551;-62
2023/09/01 05:44:51;;;;;;;2.00;1.80;;;20.60;99.90;;;;;;5058328;28;20600;-62
2023/09/01 05:47:17;;;;;;;2.10;1.90;;;20.60;99.90;;;;;;5060816;28;20309;-63
2023/09/01 05:49:44;;;;;;;1.83;1.60;;;20.60;99.90;;;;;;5060627;28;20651;-62
2023/09/01 05:52:11;;;;;;;1.88;1.77;;;20.60;99.90;;;;;;5058023;28;20194;-63
2023/09/01 05:54:37;;;;;;;2.28;2.08;;;20.60;99.90;;;;;;5059992;28;20194;-62
2023/09/01 05:57:05;;;;;;;1.60;1.40;;;20.60;99.90;;;;;;5059911;28;20217;-62
2023/09/01 05:59:33;;;;;;;1.55;1.45;;;20.60;99.90;;;;;;5057253;28;20226;-62
2023/09/01 06:01:59;;;;;;;2.10;1.67;;;20.60;99.90;;;;;;5060647;28;20554;-62
2023/09/01 06:04:26;;;;;;;2.22;1.75;;;20.60;99.90;;;;;;5060520;28;20194;-61
2023/09/01 06:06:53;;;;;;;2.10;1.75;;;20.60;99.90;;;;;;5058960;28;20220;-62
2023/09/01 06:09:19;;;;;;;1.77;1.40;;;20.60;99.90;;;;;;5059339;28;20205;-60
2023/09/01 06:11:46;;;;;;;2.10;2.00;;;20.60;99.90;;;;;;5059637;28;20295;-61
2023/09/01 06:14:13;;;;;;;1.50;1.40;;;20.60;99.90;;;;;;5055610;28;20194;-61
2023/09/01 06:16:41;;;;;;;1.40;1.30;;;20.60;99.90;;;;;;5054003;28;20848;-62
2023/09/01 06:19:08;;;;;;;2.10;1.90;;;20.60;99.90;;;;;;5058545;28;20202;-61
2023/09/01 06:21:35;;;;;;;2.03;1.83;;;20.60;99.90;;;;;;5058064;28;20826;-61
2023/09/01 06:24:03;;;;;;;1.90;1.45;;;20.60;99.90;;;;;;5060085;28;20206;-61
2023/09/01 06:26:30;;;;;;;1.75;1.55;;;20.60;99.90;;;;;;5054125;28;20946;-62
2023/09/01 06:28:57;;;;;;;1.65;1.55;;;20.60;99.90;;;;;;5056532;28;20539;-62
2023/09/01 06:31:24;;;;;;;1.73;1.63;;;20.60;99.90;;;;;;5052152;28;20201;-61
2023/09/01 06:33:51;;;;;;;1.60;1.33;;;20.60;99.90;;;;;;5062381;28;20194;-61
2023/09/01 06:36:19;;;;;;;4.90;1.83;;;20.60;99.90;;;;;;5056896;28;20197;-62
2023/09/01 06:38:47;;;;;;;2.10;1.45;;;20.60;99.90;;;;;;5057750;28;20198;-62
2023/09/01 06:41:14;;;;;;;1.55;1.35;;;20.60;99.90;;;;;;5055117;28;20646;-62
2023/09/01 06:43:41;;;;;;;1.90;1.60;;;20.60;99.90;;;;;;5059473;28;20945;-62
2023/09/01 06:46:07;;;;;;;2.22;1.85;;;20.60;99.90;;;;;;5057609;28;20226;-62
2023/09/01 06:48:35;;;;;;;19.45;2.38;;;20.60;99.90;;;;;;5056807;28;20221;-61
2023/09/01 06:51:03;;;;;;;4.93;2.78;;;20.60;99.90;;;;;;5059785;28;20682;-62
2023/09/01 06:53:30;;;;;;;3.90;2.50;;;20.50;99.90;;;;;;5056837;28;20231;-63
2023/09/01 06:55:57;;;;;;;4.65;2.65;;;20.60;99.90;;;;;;5059531;28;20483;-60
2023/09/01 06:58:23;;;;;;;4.25;2.83;;;20.50;99.90;;;;;;5052873;28;21106;-61
2023/09/01 07:00:51;;;;;;;5.57;3.22;;;20.60;99.90;;;;;;5055128;28;20199;-62
2023/09/01 07:03:19;;;;;;;2.97;1.85;;;20.50;99.90;;;;;;5060482;28;20255;-62
2023/09/01 07:05:54;;;;;;;5.68;2.28;;;20.50;99.90;;;;;;5058509;28;20271;-62
2023/09/01 07:08:22;;;;;;;3.75;2.75;;;20.50;99.90;;;;;;5061399;28;20297;-62
2023/09/01 07:10:49;;;;;;;4.40;2.60;;;20.50;99.90;;;;;;5058197;28;20313;-62
2023/09/01 07:13:16;;;;;;;3.85;1.77;;;20.50;99.90;;;;;;5058836;28;20199;-62
2023/09/01 07:15:49;;;;;;;3.45;2.25;;;20.50;99.90;;;;;;5054334;28;20192;-62
2023/09/01 07:18:15;;;;;;;3.30;2.00;;;20.60;99.90;;;;;;5055059;28;20498;-60
2023/09/01 07:20:42;;;;;;;4.47;2.22;;;20.50;99.90;;;;;;5052745;28;20210;-62
2023/09/01 07:23:09;;;;;;;4.03;1.60;;;20.50;99.90;;;;;;5060471;28;20195;-61
2023/09/01 07:25:37;;;;;;;8.57;2.17;;;20.50;99.90;;;;;;5054487;28;20187;-60
2023/09/01 07:28:04;;;;;;;4.53;2.33;;;20.60;99.90;;;;;;5050377;28;20223;-61
2023/09/01 07:30:33;;;;;;;3.47;2.20;;;20.50;99.90;;;;;;5051156;28;20201;-61
2023/09/01 07:33:00;;;;;;;3.33;2.20;;;20.50;99.90;;;;;;5055646;28;20222;-61
2023/09/01 07:35:26;;;;;;;3.33;2.30;;;20.50;99.90;;;;;;5050568;28;20198;-58
2023/09/01 07:37:53;;;;;;;10.70;2.17;;;20.50;99.90;;;;;;5057662;28;20206;-59
2023/09/01 07:40:20;;;;;;;3.65;2.45;;;20.50;99.90;;;;;;5054736;28;20198;-60
2023/09/01 07:42:48;;;;;;;3.88;2.30;;;20.50;99.90;;;;;;5056107;28;20657;-58
2023/09/01 07:45:15;;;;;;;2.92;2.45;;;20.50;99.90;;;;;;5057828;28;20198;-59
2023/09/01 07:47:42;;;;;;;2.42;2.10;;;20.50;99.90;;;;;;5057618;28;20218;-58
2023/09/01 07:50:10;;;;;;;4.03;2.00;;;20.50;99.90;;;;;;5053539;28;20513;-59
2023/09/01 07:52:37;;;;;;;4.83;2.33;;;20.60;99.90;;;;;;5051950;28;20283;-60
2023/09/01 07:55:05;;;;;;;3.43;2.10;;;20.50;99.90;;;;;;5055596;28;20465;-60
2023/09/01 07:57:31;;;;;;;4.05;2.20;;;20.50;99.90;;;;;;5055657;28;20464;-59
2023/09/01 07:59:59;;;;;;;4.53;2.22;;;20.50;99.90;;;;;;5060514;28;20196;-59
2023/09/01 08:02:26;;;;;;;5.53;2.10;;;20.50;99.90;;;;;;5059394;28;20217;-59
2023/09/01 08:04:53;;;;;;;3.13;2.07;;;20.50;99.90;;;;;;5058353;28;20202;-60
2023/09/01 08:07:19;;;;;;;6.05;2.58;;;20.50;99.90;;;;;;5059056;28;20481;-58
2023/09/01 08:09:46;;;;;;;5.43;1.92;;;20.50;99.90;;;;;;5056132;28;20194;-58
2023/09/01 08:12:13;;;;;;;5.90;2.38;;;20.50;99.90;;;;;;5058335;28;20761;-60
2023/09/01 08:14:40;;;;;;;3.58;1.63;;;20.50;99.90;;;;;;5058170;28;20190;-59
2023/09/01 08:17:08;;;;;;;4.13;1.95;;;20.50;99.90;;;;;;5057455;28;20194;-59
2023/09/01 08:19:35;;;;;;;3.28;2.13;;;20.50;99.90;;;;;;5061086;28;20195;-58
2023/09/01 08:22:03;;;;;;;2.80;2.38;;;20.60;99.90;;;;;;5056666;28;20255;-56
2023/09/01 08:24:31;;;;;;;2.42;2.20;;;20.60;99.90;;;;;;5056095;28;20230;-58
2023/09/01 08:26:57;;;;;;;3.55;2.30;;;20.50;99.90;;;;;;5049724;28;20808;-59
2023/09/01 08:29:24;;;;;;;8.82;2.30;;;20.50;99.90;;;;;;5060693;28;20241;-61
2023/09/01 08:31:51;;;;;;;6.57;2.67;;;20.60;99.90;;;;;;5059918;28;20207;-59
2023/09/01 08:34:19;;;;;;;3.00;2.38;;;20.50;99.90;;;;;;5059362;28;20190;-59
2023/09/01 08:36:46;;;;;;;2.42;1.75;;;20.50;99.90;;;;;;5055552;28;20209;-60
2023/09/01 08:39:13;;;;;;;4.45;2.25;;;20.50;99.90;;;;;;5057297;28;20210;-60
2023/09/01 08:41:41;;;;;;;3.38;2.10;;;20.60;99.90;;;;;;5055974;28;20187;-60
2023/09/01 08:44:11;;;;;;;4.47;1.75;;;20.60;99.90;;;;;;5057925;28;20187;-59
2023/09/01 08:46:38;;;;;;;2.45;1.80;;;20.50;99.90;;;;;;5055056;28;20815;-59
2023/09/01 08:49:05;;;;;;;2.55;2.00;;;20.50;99.90;;;;;;5056764;28;20487;-58
2023/09/01 08:51:35;;;;;;;2.38;1.95;;;20.50;99.90;;;;;;5058870;28;20222;-58
2023/09/01 08:54:03;;;;;;;2.17;1.98;;;20.60;99.90;;;;;;5057180;28;20195;-61
2023/09/01 08:56:32;;;;;;;2.78;2.03;;;20.60;99.90;;;;;;5046972;28;20190;-56
2023/09/01 08:58:59;;;;;;;7.00;2.50;;;20.60;99.90;;;;;;5053566;28;20755;-59
2023/09/01 09:01:27;;;;;;;2.30;2.08;;;20.60;99.90;;;;;;5054210;28;20191;-63
2023/09/01 09:03:54;;;;;;;2.95;2.22;;;20.60;99.90;;;;;;5058960;28;20252;-59
2023/09/01 09:06:33;;;;;;;2.22;2.03;;;20.60;99.90;;;;;;5059038;28;20201;-60
2023/09/01 09:09:06;;;;;;;4.10;1.85;;;20.60;99.90;;;;;;5057405;28;20237;-59
2023/09/01 09:11:33;;;;;;;2.20;2.00;;;20.60;99.90;;;;;;5055841;28;20223;-63
2023/09/01 09:13:59;;;;;;;2.35;1.88;;;20.60;99.90;;;;;;5058863;28;20542;-61
2023/09/01 09:16:26;;;;;;;3.17;2.10;;;20.60;99.90;;;;;;5053901;28;20693;-60
2023/09/01 09:18:53;;;;;;;4.28;2.50;;;20.60;99.90;;;;;;5057803;28;20206;-61
2023/09/01 09:21:27;;;;;;;1.90;1.75;;;20.60;99.90;;;;;;5055735;28;20194;-58
2023/09/01 09:23:59;;;;;;;2.75;1.77;;;20.60;99.90;;;;;;5057833;28;20627;-61
2023/09/01 09:26:26;;;;;;;4.22;2.00;;;20.60;99.90;;;;;;5053903;28;20203;-59
2023/09/01 09:28:54;;;;;;;3.07;1.70;;;20.60;99.90;;;;;;5057024;28;20612;-60
2023/09/01 09:31:32;;;;;;;2.65;2.45;;;20.60;99.90;;;;;;5055045;28;20458;-61
2023/09/01 09:33:59;;;;;;;2.90;2.00;;;20.60;99.90;;;;;;5057504;28;20229;-59
2023/09/01 09:36:33;;;;;;;2.00;1.80;;;20.60;99.90;;;;;;5052961;28;20217;-59
2023/09/01 09:39:02;;;;;;;2.67;2.20;;;20.60;99.90;;;;;;5057742;28;20225;-59
2023/09/01 09:41:45;;;;;;;2.72;2.15;;;20.60;99.90;;;;;;5057662;28;20219;-58
2023/09/01 09:44:12;;;;;;;2.92;1.85;;;20.60;99.90;;;;;;5058761;28;20198;-58
2023/09/01 09:46:41;;;;;;;3.63;2.10;;;20.60;99.90;;;;;;5056960;28;20198;-58
2023/09/01 09:49:09;;;;;;;2.80;2.00;;;20.60;99.90;;;;;;5059702;28;20245;-59
2023/09/01 09:51:36;;;;;;;11.45;2.50;;;20.60;99.90;;;;;;5062032;28;20195;-59
2023/09/01 09:54:09;;;;;;;2.25;1.70;;;20.60;99.90;;;;;;5062390;28;20577;-62
2023/09/01 09:56:36;;;;;;;3.35;1.83;;;20.60;99.90;;;;;;5057312;28;20202;-60
2023/09/01 09:59:04;;;;;;;2.22;1.92;;;20.60;99.90;;;;;;5061798;28;20248;-58
2023/09/01 10:01:35;;;;;;;2.67;2.10;;;20.60;99.90;;;;;;5062395;28;20198;-61
2023/09/01 10:04:04;;;;;;;2.15;1.85;;;20.60;99.90;;;;;;5060198;28;20622;-58
2023/09/01 10:06:32;;;;;;;2.40;2.10;;;20.60;99.90;;;;;;5060194;28;20312;-60
2023/09/01 10:09:00;;;;;;;2.35;1.65;;;20.60;99.90;;;;;;5061894;28;20245;-59
2023/09/01 10:11:30;;;;;;;2.10;1.70;;;20.60;99.90;;;;;;5057520;28;20189;-59
2023/09/01 10:13:57;;;;;;;2.40;1.77;;;20.60;99.90;;;;;;5062324;28;20234;-59
2023/09/01 10:16:24;;;;;;;4.65;1.90;;;20.60;99.90;;;;;;5061295;28;20564;-62
2023/09/01 10:18:52;;;;;;;1.90;1.80;;;20.60;99.90;;;;;;5057676;28;21354;-62
2023/09/01 10:21:20;;;;;;;2.65;1.77;;;20.60;99.90;;;;;;5050220;28;20195;-59
2023/09/01 10:23:47;;;;;;;3.60;2.05;;;20.60;99.90;;;;;;5057770;28;20186;-60
2023/09/01 10:26:17;;;;;;;2.97;2.75;;;20.60;99.90;;;;;;5057930;28;20203;-63
2023/09/01 10:28:59;;;;;;;13.05;2.70;;;20.60;99.90;;;;;;5057780;28;20210;-63
2023/09/01 10:31:27;;;;;;;7.85;2.10;;;20.60;99.90;;;;;;5056651;28;20285;-60
2023/09/01 10:34:13;;;;;;;5.60;2.10;;;20.60;99.90;;;;;;5058606;28;20239;-61
2023/09/01 10:36:40;;;;;;;8.98;2.55;;;20.60;99.90;;;;;;5049690;28;20542;-62
2023/09/01 10:39:23;;;;;;;4.55;2.35;;;20.60;99.90;;;;;;5059711;28;20467;-61
2023/09/01 10:41:57;;;;;;;10.65;2.00;;;20.60;99.90;;;;;;5053068;28;20187;-63
2023/09/01 10:44:27;;;;;;;7.18;2.30;;;20.60;99.90;;;;;;5059676;28;20301;-61
2023/09/01 10:46:54;;;;;;;8.00;2.35;;;20.60;99.90;;;;;;5059876;28;20194;-60
2023/09/01 10:49:41;;;;;;;3.17;2.15;;;20.60;99.90;;;;;;5053788;28;20222;-60
2023/09/01 10:52:14;;;;;;;7.43;2.30;;;20.60;99.90;;;;;;5056505;28;20205;-63
2023/09/01 10:54:41;;;;;;;5.80;2.03;;;20.60;99.90;;;;;;5057152;28;20554;-59
2023/09/01 10:57:12;;;;;;;4.35;2.00;;;20.60;99.90;;;;;;5055425;28;20242;-61
2023/09/01 10:59:40;;;;;;;6.70;2.40;;;20.60;99.90;;;;;;5055096;28;20278;-63
2023/09/01 11:02:20;;;;;;;2.53;2.33;;;20.60;99.90;;;;;;5058021;28;20191;-61
2023/09/01 11:04:47;;;;;;;28.52;2.97;;;20.60;99.90;;;;;;5054762;28;20757;-60
2023/09/01 11:07:14;;;;;;;3.88;2.22;;;20.60;99.90;;;;;;5054016;28;20203;-63
2023/09/01 11:10:02;;;;;;;3.15;2.15;;;20.60;99.90;;;;;;5055265;28;20222;-60
2023/09/01 11:12:31;;;;;;;4.78;2.08;;;20.60;99.90;;;;;;5057019;28;20285;-60
2023/09/01 11:15:01;;;;;;;5.32;2.45;;;20.60;99.90;;;;;;5056536;28;20187;-61
2023/09/01 11:17:37;;;;;;;3.28;2.15;;;20.60;99.90;;;;;;5052993;28;20202;-62
2023/09/01 11:20:08;;;;;;;6.43;2.10;;;20.60;99.90;;;;;;5051492;28;20190;-61
2023/09/01 11:22:35;;;;;;;2.70;1.97;;;20.60;99.90;;;;;;5052853;28;20344;-62
2023/09/01 11:25:02;;;;;;;3.67;2.30;;;20.60;99.90;;;;;;5054915;28;20452;-63
2023/09/01 11:27:30;;;;;;;2.45;1.85;;;20.60;99.90;;;;;;5052200;28;20194;-62
2023/09/01 11:29:57;;;;;;;2.78;1.83;;;20.60;99.90;;;;;;5053506;28;20194;-63
2023/09/01 11:32:28;;;;;;;3.33;1.75;;;20.60;99.90;;;;;;5051372;28;20646;-64
2023/09/01 11:34:55;;;;;;;4.95;2.38;;;20.60;99.90;;;;;;5044219;28;20212;-64
2023/09/01 11:37:35;;;;;;;5.10;2.47;;;20.60;99.90;;;;;;5057982;28;20194;-57
2023/09/01 11:40:04;;;;;;;4.45;1.80;;;20.70;99.90;;;;;;5057975;28;20945;-61
2023/09/01 11:42:33;;;;;;;2.63;1.63;;;20.70;99.90;;;;;;5050681;28;20199;-62
2023/09/01 11:45:00;;;;;;;4.80;1.90;;;20.70;99.90;;;;;;5056951;28;20518;-61
2023/09/01 11:47:28;;;;;;;10.47;2.07;;;20.70;99.90;;;;;;5054509;28;20452;-62
2023/09/01 11:49:56;;;;;;;2.72;1.80;;;20.70;99.90;;;;;;5050678;28;21154;-62
2023/09/01 11:52:24;;;;;;;2.97;1.70;;;20.70;99.90;;;;;;5055393;28;20199;-63
2023/09/01 11:54:51;;;;;;;2.22;1.75;;;20.70;99.90;;;;;;5056066;28;20452;-64
2023/09/01 11:57:18;;;;;;;2.37;1.70;;;20.80;99.90;;;;;;5052249;28;20188;-62
2023/09/01 11:59:45;;;;;;;2.00;1.60;;;20.80;99.90;;;;;;5056382;28;20576;-65
2023/09/01 12:02:13;;;;;;;2.90;1.90;;;20.80;99.90;;;;;;5056381;28;20468;-64
2023/09/01 12:04:47;;;;;;;3.73;2.10;;;20.90;99.90;;;;;;5053229;28;20800;-65
2023/09/01 12:07:29;;;;;;;7.63;1.70;;;20.90;99.90;;;;;;5055901;28;20488;-63
2023/09/01 12:09:56;;;;;;;8.97;2.63;;;20.90;99.90;;;;;;5058783;28;20480;-61
2023/09/01 12:12:23;;;;;;;3.20;2.00;;;21.00;99.90;;;;;;5054484;28;20471;-63
2023/09/01 12:14:50;;;;;;;1.87;1.57;;;21.00;99.90;;;;;;5054080;28;20463;-64
2023/09/01 12:17:18;;;;;;;1.93;1.50;;;21.00;99.90;;;;;;5055275;28;20982;-64
2023/09/01 12:19:49;;;;;;;8.50;2.20;;;21.00;99.90;;;;;;5053047;28;20910;-65
2023/09/01 12:22:17;;;;;;;2.13;1.83;;;21.10;99.90;;;;;;5057954;28;20451;-63
2023/09/01 12:24:53;;;;;;;2.50;2.30;;;21.10;99.90;;;;;;5054955;28;20453;-62
2023/09/01 12:27:20;;;;;;;1.93;1.73;;;21.10;99.90;;;;;;5055766;28;20464;-63
2023/09/01 12:29:47;;;;;;;2.93;1.50;;;21.20;99.90;;;;;;5054083;28;20481;-62
2023/09/01 12:32:14;;;;;;;2.17;1.73;;;21.20;99.90;;;;;;5054080;28;20468;-61
2023/09/01 12:34:41;;;;;;;4.80;1.83;;;21.20;99.90;;;;;;5057316;28;20460;-62
2023/09/01 12:37:09;;;;;;;3.23;1.77;;;21.30;99.90;;;;;;5054422;28;20464;-63
2023/09/01 12:39:38;;;;;;;1.90;1.70;;;21.30;99.90;;;;;;5055795;28;20456;-62
2023/09/01 12:42:05;;;;;;;2.63;1.80;;;21.30;99.90;;;;;;5054217;28;20464;-62
2023/09/01 12:44:32;;;;;;;2.93;1.53;;;21.40;99.90;;;;;;5057629;28;20460;-65
2023/09/01 12:46:59;;;;;;;2.60;2.40;;;21.40;99.90;;;;;;5057332;28;20491;-62
2023/09/01 12:49:26;;;;;;;4.27;1.63;;;21.40;99.90;;;;;;5057704;28;21154;-62
2023/09/01 12:51:53;;;;;;;1.87;1.60;;;21.40;99.90;;;;;;5058235;28;20464;-62